createdAt,value
2022-12-26T00:00:51.728Z,87.40
2022-12-26T00:03:19.745Z,86.92
2022-12-26T00:05:47.494Z,86.85
2022-12-26T00:08:15.439Z,86.83
2022-12-26T00:10:43.155Z,87.05
2022-12-26T00:13:40.150Z,87.20
2022-12-26T00:15:59.043Z,87.17
2022-12-26T00:18:26.807Z,86.68
2022-12-26T00:20:54.463Z,86.88
2022-12-26T00:23:22.126Z,87.30
2022-12-26T00:25:49.778Z,87.21
2022-12-26T00:28:17.498Z,87.58
2022-12-26T00:30:45.305Z,86.82
2022-12-26T00:33:13.016Z,87.48
2022-12-26T00:35:40.632Z,87.50
2022-12-26T00:38:09.124Z,87.51
2022-12-26T00:40:37.188Z,87.38
2022-12-26T00:43:04.789Z,87.55
2022-12-26T00:45:32.481Z,87.47
2022-12-26T00:48:00.106Z,87.30
2022-12-26T00:50:34.220Z,87.68
2022-12-26T00:53:02.726Z,87.30
2022-12-26T00:55:30.586Z,87.43
2022-12-26T00:57:58.172Z,87.45
2022-12-26T01:00:26.211Z,87.75
2022-12-26T01:02:54.100Z,87.33
2022-12-26T01:05:21.811Z,87.20
2022-12-26T01:08:20.165Z,87.85
2022-12-26T01:10:37.236Z,87.54
2022-12-26T01:13:04.928Z,87.58
2022-12-26T01:15:32.964Z,87.55
2022-12-26T01:18:01.012Z,86.90
2022-12-26T01:20:28.778Z,87.16
2022-12-26T01:22:56.403Z,86.97
2022-12-26T01:25:24.055Z,86.82
2022-12-26T01:27:52.119Z,86.74
2022-12-26T01:30:19.931Z,87.10
2022-12-26T01:32:47.526Z,86.99
2022-12-26T01:35:15.189Z,86.89
2022-12-26T01:37:42.763Z,86.41
2022-12-26T01:40:10.412Z,86.50
2022-12-26T01:42:39.473Z,86.69
2022-12-26T01:45:07.088Z,86.52
2022-12-26T01:47:34.719Z,86.28
2022-12-26T01:50:02.336Z,86.43
2022-12-26T01:52:30.356Z,87.01
2022-12-26T01:54:57.978Z,87.48
2022-12-26T01:57:25.621Z,86.76
2022-12-26T01:59:53.200Z,87.28
2022-12-26T02:02:21.030Z,87.23
2022-12-26T02:05:07.293Z,87.56
2022-12-26T02:07:35.206Z,86.87
2022-12-26T02:10:02.989Z,87.68
2022-12-26T02:12:35.622Z,87.27
2022-12-26T02:15:05.799Z,87.06
2022-12-26T02:17:33.808Z,87.44
2022-12-26T02:20:02.152Z,87.18
2022-12-26T02:22:29.743Z,87.56
2022-12-26T02:24:57.948Z,87.32
2022-12-26T02:27:25.533Z,87.88
2022-12-26T02:29:53.345Z,87.54
2022-12-26T02:32:21.060Z,87.65
2022-12-26T02:34:48.720Z,87.44
2022-12-26T02:37:16.318Z,87.74
2022-12-26T02:39:46.637Z,88.07
2022-12-26T02:42:14.892Z,87.44
2022-12-26T02:45:00.284Z,87.41
2022-12-26T02:47:28.432Z,88.14
2022-12-26T02:50:13.586Z,87.82
2022-12-26T02:52:58.920Z,87.86
2022-12-26T02:55:43.900Z,88.20
2022-12-26T02:58:43.368Z,88.09
2022-12-26T03:01:28.486Z,88.04
2022-12-26T03:04:14.019Z,88.00
2022-12-26T03:06:59.116Z,88.01
2022-12-26T03:09:44.040Z,88.02
2022-12-26T03:12:29.089Z,88.03
2022-12-26T03:14:57.067Z,88.31
2022-12-26T03:17:23.664Z,88.37
2022-12-26T03:20:03.327Z,88.08
2022-12-26T03:22:33.923Z,88.15
2022-12-26T03:25:19.915Z,88.04
2022-12-26T03:27:47.651Z,88.49
2022-12-26T03:30:41.016Z,88.37
2022-12-26T03:33:29.752Z,88.04
2022-12-26T03:35:56.683Z,88.11
2022-12-26T03:38:24.258Z,88.29
2022-12-26T03:41:09.402Z,88.33
2022-12-26T03:43:54.182Z,88.64
2022-12-26T03:46:39.609Z,88.05
2022-12-26T03:49:24.853Z,88.41
2022-12-26T03:52:06.274Z,88.17
2022-12-26T03:54:51.208Z,88.27
2022-12-26T03:57:36.522Z,88.73
2022-12-26T04:00:20.738Z,88.71
2022-12-26T04:03:05.719Z,88.53
2022-12-26T04:05:50.717Z,88.36
2022-12-26T04:08:36.413Z,88.47
2022-12-26T04:11:21.345Z,88.37
2022-12-26T04:14:06.312Z,88.40
2022-12-26T04:16:51.195Z,88.36
2022-12-26T04:19:28.679Z,88.81
2022-12-26T04:22:13.679Z,88.83
2022-12-26T04:24:58.692Z,88.24
2022-12-26T04:27:43.681Z,88.47
2022-12-26T04:30:29.401Z,88.91
2022-12-26T04:33:14.299Z,88.72
2022-12-26T04:35:59.204Z,88.69
2022-12-26T04:38:44.183Z,88.13
2022-12-26T04:41:29.140Z,88.57
2022-12-26T04:44:07.635Z,88.39
2022-12-26T04:46:35.653Z,88.39
2022-12-26T04:49:20.684Z,89.10
2022-12-26T04:51:48.639Z,88.94
2022-12-26T04:54:16.297Z,89.09
2022-12-26T04:56:43.888Z,88.60
2022-12-26T04:59:11.504Z,88.55
2022-12-26T05:01:56.908Z,88.87
2022-12-26T05:04:42.145Z,89.01
2022-12-26T05:07:27.078Z,88.79
2022-12-26T05:09:54.694Z,88.52
2022-12-26T05:12:22.993Z,88.57
2022-12-26T05:14:50.561Z,88.76
2022-12-26T05:17:35.774Z,88.31
2022-12-26T05:20:20.756Z,88.68
2022-12-26T05:23:06.004Z,88.62
2022-12-26T05:25:51.488Z,88.88
2022-12-26T05:28:36.451Z,88.79
2022-12-26T05:31:04.252Z,88.69
2022-12-26T05:33:49.889Z,88.55
2022-12-26T05:36:17.534Z,88.95
2022-12-26T05:38:45.091Z,88.90
2022-12-26T05:41:12.677Z,88.53
2022-12-26T05:43:40.234Z,88.65
2022-12-26T05:46:08.031Z,88.61
2022-12-26T05:48:35.686Z,88.68
2022-12-26T05:51:03.245Z,88.21
2022-12-26T05:53:30.838Z,88.70
2022-12-26T05:55:58.963Z,88.37
2022-12-26T05:58:26.934Z,88.69
2022-12-26T06:00:54.527Z,88.40
2022-12-26T06:03:22.324Z,88.41
2022-12-26T06:05:50.288Z,88.15
2022-12-26T06:08:17.897Z,88.52
2022-12-26T06:10:45.869Z,88.67
2022-12-26T06:13:13.445Z,88.60
2022-12-26T06:15:41.009Z,88.11
2022-12-26T06:18:08.844Z,88.13
2022-12-26T06:20:36.389Z,88.47
2022-12-26T06:23:04.404Z,88.02
2022-12-26T06:25:32.051Z,88.22
2022-12-26T06:27:59.610Z,88.33
2022-12-26T06:30:27.256Z,87.92
2022-12-26T06:32:54.887Z,87.89
2022-12-26T06:35:22.927Z,87.97
2022-12-26T06:37:50.809Z,88.09
2022-12-26T06:40:18.446Z,87.74
2022-12-26T06:42:46.032Z,87.79
2022-12-26T06:45:13.626Z,87.63
2022-12-26T06:47:41.555Z,88.37
2022-12-26T06:50:09.132Z,88.19
2022-12-26T06:52:36.747Z,88.25
2022-12-26T06:55:04.430Z,87.93
2022-12-26T06:57:32.047Z,87.89
2022-12-26T07:00:00.179Z,87.52
2022-12-26T07:02:27.912Z,88.00
2022-12-26T07:04:57.001Z,87.94
2022-12-26T07:07:24.789Z,88.33
2022-12-26T07:09:52.445Z,87.74
2022-12-26T07:12:22.167Z,87.71
2022-12-26T07:14:49.764Z,87.72
2022-12-26T07:17:17.384Z,87.76
2022-12-26T07:19:45.071Z,87.42
2022-12-26T07:22:13.072Z,87.67
2022-12-26T07:24:41.044Z,87.51
2022-12-26T07:27:08.677Z,87.47
2022-12-26T07:29:36.241Z,87.68
2022-12-26T07:32:04.128Z,87.21
2022-12-26T07:34:32.329Z,87.17
2022-12-26T07:37:00.442Z,87.92
2022-12-26T07:39:28.077Z,87.49
2022-12-26T07:41:57.785Z,87.21
2022-12-26T07:44:26.443Z,87.46
2022-12-26T07:46:54.089Z,87.65
2022-12-26T07:49:22.068Z,87.23
2022-12-26T07:51:49.631Z,87.18
2022-12-26T07:54:17.248Z,86.86
2022-12-26T07:56:44.817Z,87.07
2022-12-26T07:59:12.385Z,87.60
2022-12-26T08:01:40.486Z,87.26
2022-12-26T08:04:08.172Z,87.08
2022-12-26T08:06:36.095Z,87.28
2022-12-26T08:09:04.012Z,86.83
2022-12-26T08:11:31.639Z,86.90
2022-12-26T08:13:59.679Z,86.93
2022-12-26T08:16:28.616Z,87.12
2022-12-26T08:18:56.206Z,87.17
2022-12-26T08:21:24.170Z,87.10
2022-12-26T08:23:51.852Z,86.89
2022-12-26T08:26:23.585Z,86.81
2022-12-26T08:28:51.655Z,86.63
2022-12-26T08:31:19.372Z,86.53
2022-12-26T08:33:46.995Z,86.65
2022-12-26T08:36:16.985Z,87.03
2022-12-26T08:38:44.996Z,87.12
2022-12-26T08:41:12.656Z,86.96
2022-12-26T08:44:42.126Z,87.12
2022-12-26T08:46:28.227Z,86.64
2022-12-26T08:48:56.275Z,86.91
2022-12-26T08:51:24.065Z,86.65
2022-12-26T08:53:51.815Z,86.64
2022-12-26T08:56:19.464Z,86.72
2022-12-26T08:58:47.090Z,86.70
2022-12-26T09:01:15.214Z,86.57
2022-12-26T09:03:42.887Z,86.49
2022-12-26T09:06:10.494Z,85.96
2022-12-26T09:08:38.236Z,86.27
2022-12-26T09:11:07.236Z,86.52
2022-12-26T09:13:35.248Z,86.32
2022-12-26T09:16:03.042Z,86.10
2022-12-26T09:18:31.868Z,86.20
2022-12-26T09:20:59.598Z,85.95
2022-12-26T09:23:27.353Z,86.21
2022-12-26T09:25:55.396Z,85.88
2022-12-26T09:28:23.121Z,86.04
2022-12-26T09:30:50.864Z,86.19
2022-12-26T09:33:18.883Z,85.72
2022-12-26T09:35:46.790Z,85.93
2022-12-26T09:38:14.872Z,85.64
2022-12-26T09:40:42.568Z,85.52
2022-12-26T09:43:10.290Z,86.01
2022-12-26T09:45:37.966Z,85.98
2022-12-26T09:48:05.930Z,85.95
2022-12-26T09:50:37.091Z,85.54
2022-12-26T09:53:07.404Z,85.68
2022-12-26T09:55:35.497Z,85.86
2022-12-26T09:58:03.324Z,85.95
2022-12-26T10:00:31.204Z,85.39
2022-12-26T10:02:58.837Z,85.79
2022-12-26T10:05:26.564Z,85.77
2022-12-26T10:07:54.331Z,85.51
2022-12-26T10:10:22.014Z,85.52
2022-12-26T10:12:49.954Z,85.38
2022-12-26T10:15:18.265Z,85.08
2022-12-26T10:17:45.931Z,84.87
2022-12-26T10:20:13.672Z,84.79
2022-12-26T10:22:41.402Z,84.22
2022-12-26T10:25:09.489Z,83.70
2022-12-26T10:27:37.723Z,83.62
2022-12-26T10:30:05.541Z,83.04
2022-12-26T10:32:33.301Z,81.87
2022-12-26T10:35:00.995Z,81.47
2022-12-26T10:37:31.085Z,81.23
2022-12-26T10:39:59.143Z,80.90
2022-12-26T10:42:26.822Z,81.21
2022-12-26T10:44:54.532Z,81.79
2022-12-26T10:47:22.284Z,82.08
2022-12-26T10:49:50.159Z,81.70
2022-12-26T10:52:18.372Z,81.53
2022-12-26T10:54:46.205Z,81.15
2022-12-26T10:57:14.001Z,81.21
2022-12-26T10:59:42.233Z,81.26
2022-12-26T11:02:10.107Z,81.44
2022-12-26T11:05:11.259Z,81.50
2022-12-26T11:07:25.942Z,81.58
2022-12-26T11:09:57.833Z,82.02
2022-12-26T11:12:25.958Z,81.93
2022-12-26T11:14:53.745Z,82.13
2022-12-26T11:17:21.416Z,82.25
2022-12-26T11:19:49.106Z,81.55
2022-12-26T11:22:18.021Z,81.59
2022-12-26T11:24:46.025Z,81.55
2022-12-26T11:27:14.176Z,81.58
2022-12-26T11:29:43.026Z,81.15
2022-12-26T11:32:10.733Z,80.92
2022-12-26T11:34:39.797Z,80.72
2022-12-26T11:37:07.863Z,80.79
2022-12-26T11:39:36.058Z,80.61
2022-12-26T11:42:04.235Z,80.63
2022-12-26T11:44:32.298Z,80.33
2022-12-26T11:47:00.455Z,81.09
2022-12-26T11:49:29.556Z,80.71
2022-12-26T11:51:59.743Z,80.71
2022-12-26T11:54:27.972Z,80.72
2022-12-26T11:56:55.709Z,80.08
2022-12-26T11:59:25.380Z,80.78
2022-12-26T12:01:53.418Z,80.31
2022-12-26T12:04:22.235Z,80.64
2022-12-26T12:06:50.183Z,79.83
2022-12-26T12:09:18.073Z,79.82
2022-12-26T12:11:45.866Z,79.36
2022-12-26T12:14:14.150Z,79.76
2022-12-26T12:16:42.662Z,79.95
2022-12-26T12:19:10.559Z,79.22
2022-12-26T12:21:38.511Z,79.83
2022-12-26T12:24:06.649Z,80.10
2022-12-26T12:26:35.742Z,79.87
2022-12-26T12:29:04.116Z,80.05
2022-12-26T12:31:31.995Z,80.00
2022-12-26T12:33:59.849Z,80.17
2022-12-26T12:36:27.990Z,79.85
2022-12-26T12:38:56.746Z,80.65
2022-12-26T12:41:25.132Z,81.01
2022-12-26T12:43:53.222Z,81.96
2022-12-26T12:46:21.100Z,82.56
2022-12-26T12:48:48.953Z,82.06
2022-12-26T12:51:17.143Z,82.27
2022-12-26T12:53:45.391Z,82.66
2022-12-26T12:56:13.235Z,82.10
2022-12-26T12:58:41.167Z,82.47
2022-12-26T13:01:09.022Z,82.09
2022-12-26T13:03:37.621Z,82.04
2022-12-26T13:06:06.072Z,82.47
2022-12-26T13:08:33.974Z,81.84
2022-12-26T13:11:02.152Z,81.67
2022-12-26T13:13:30.103Z,81.75
2022-12-26T13:15:58.491Z,81.58
2022-12-26T13:18:27.036Z,81.75
2022-12-26T13:20:55.019Z,81.05
2022-12-26T13:23:40.443Z,81.00
2022-12-26T13:26:08.383Z,80.99
2022-12-26T13:28:36.177Z,80.82
2022-12-26T13:31:04.473Z,81.21
2022-12-26T13:33:32.363Z,81.55
2022-12-26T13:36:00.064Z,81.46
2022-12-26T13:38:28.787Z,81.55
2022-12-26T13:40:57.345Z,81.46
2022-12-26T13:43:42.410Z,82.56
2022-12-26T13:46:10.318Z,82.90
2022-12-26T13:48:38.324Z,83.06
2022-12-26T13:51:06.282Z,83.47
2022-12-26T13:53:34.516Z,83.34
2022-12-26T13:56:02.644Z,84.11
2022-12-26T13:58:30.541Z,83.71
2022-12-26T14:00:58.847Z,84.01
2022-12-26T14:03:27.250Z,83.93
2022-12-26T14:05:55.233Z,83.86
2022-12-26T14:08:23.015Z,83.79
2022-12-26T14:10:50.905Z,83.60
2022-12-26T14:13:20.879Z,83.79
2022-12-26T14:15:49.087Z,84.09
2022-12-26T14:18:16.815Z,83.97
2022-12-26T14:20:44.870Z,83.90
2022-12-26T14:23:12.839Z,83.83
2022-12-26T14:25:41.981Z,83.78
2022-12-26T14:28:12.879Z,84.31
2022-12-26T14:30:40.673Z,83.73
2022-12-26T14:33:09.684Z,84.31
2022-12-26T14:35:38.054Z,84.23
2022-12-26T14:38:06.057Z,84.31
2022-12-26T14:40:35.164Z,83.93
2022-12-26T14:43:11.099Z,83.86
2022-12-26T14:45:39.243Z,83.83
2022-12-26T14:48:07.131Z,83.92
2022-12-26T14:50:35.296Z,84.33
2022-12-26T14:53:03.130Z,84.21
2022-12-26T14:55:30.990Z,83.92
2022-12-26T14:57:58.878Z,84.26
2022-12-26T15:00:26.890Z,84.35
2022-12-26T15:02:55.642Z,84.18
2022-12-26T15:05:24.697Z,84.00
2022-12-26T15:07:52.597Z,84.35
2022-12-26T15:10:20.375Z,84.53
2022-12-26T15:12:51.327Z,84.25
2022-12-26T15:15:24.920Z,84.32
2022-12-26T15:17:52.941Z,84.35
2022-12-26T15:20:20.677Z,84.76
2022-12-26T15:22:48.835Z,84.34
2022-12-26T15:25:19.578Z,84.28
2022-12-26T15:27:49.102Z,84.96
2022-12-26T15:30:16.953Z,84.66
2022-12-26T15:32:44.791Z,84.85
2022-12-26T15:35:12.989Z,84.72
2022-12-26T15:37:41.635Z,84.97
2022-12-26T15:40:11.339Z,84.65
2022-12-26T15:42:39.162Z,84.64
2022-12-26T15:45:06.958Z,84.83
2022-12-26T15:47:34.910Z,85.15
2022-12-26T15:50:02.827Z,85.09
2022-12-26T15:52:31.036Z,84.84
2022-12-26T15:54:58.971Z,84.72
2022-12-26T15:57:26.717Z,85.25
2022-12-26T15:59:55.694Z,85.04
2022-12-26T16:02:23.784Z,84.86
2022-12-26T16:04:52.054Z,85.34
2022-12-26T16:07:19.809Z,84.82
2022-12-26T16:09:47.815Z,84.77
2022-12-26T16:12:16.267Z,84.77
2022-12-26T16:14:44.138Z,85.23
2022-12-26T16:17:12.456Z,85.07
2022-12-26T16:19:41.130Z,85.11
2022-12-26T16:22:29.305Z,85.06
2022-12-26T16:24:57.091Z,85.03
2022-12-26T16:27:25.309Z,85.12
2022-12-26T16:29:53.336Z,85.09
2022-12-26T16:32:21.166Z,85.25
2022-12-26T16:34:49.064Z,85.41
2022-12-26T16:37:16.963Z,85.01
2022-12-26T16:39:45.221Z,85.16
2022-12-26T16:42:13.181Z,85.48
2022-12-26T16:44:41.196Z,85.30
2022-12-26T16:47:09.084Z,85.30
2022-12-26T16:49:37.054Z,85.11
2022-12-26T16:52:05.056Z,85.12
2022-12-26T16:54:32.821Z,85.22
2022-12-26T16:57:00.698Z,84.98
2022-12-26T16:59:29.004Z,85.22
2022-12-26T17:01:57.056Z,85.17
2022-12-26T17:04:25.782Z,85.77
2022-12-26T17:06:53.771Z,85.33
2022-12-26T17:09:22.302Z,85.02
2022-12-26T17:11:51.688Z,85.33
2022-12-26T17:14:19.560Z,85.52
2022-12-26T17:16:47.692Z,85.49
2022-12-26T17:19:15.653Z,85.52
2022-12-26T17:21:43.512Z,85.25
2022-12-26T17:24:11.583Z,85.96
2022-12-26T17:26:43.202Z,85.86
2022-12-26T17:29:11.514Z,86.06
2022-12-26T17:31:39.422Z,85.68
2022-12-26T17:34:07.294Z,86.29
2022-12-26T17:37:17.147Z,86.11
2022-12-26T17:39:23.896Z,86.12
2022-12-26T17:41:51.915Z,86.31
2022-12-26T17:44:19.644Z,86.22
2022-12-26T17:46:47.631Z,86.28
2022-12-26T17:49:15.694Z,86.20
2022-12-26T17:51:50.737Z,86.42
2022-12-26T17:54:22.432Z,86.09
2022-12-26T17:56:50.388Z,86.33
2022-12-26T17:59:18.221Z,86.66
2022-12-26T18:01:46.620Z,86.63
2022-12-26T18:04:14.418Z,86.29
2022-12-26T18:06:42.397Z,86.18
2022-12-26T18:09:10.469Z,86.45
2022-12-26T18:11:38.381Z,86.08
2022-12-26T18:14:06.222Z,86.15
2022-12-26T18:16:34.203Z,86.15
2022-12-26T18:19:01.951Z,85.62
2022-12-26T18:21:30.151Z,85.61
2022-12-26T18:23:58.107Z,85.63
2022-12-26T18:26:26.394Z,85.47
2022-12-26T18:28:54.681Z,85.79
2022-12-26T18:31:22.607Z,85.54
2022-12-26T18:33:50.574Z,85.58
2022-12-26T18:36:18.535Z,85.66
2022-12-26T18:38:47.195Z,85.54
2022-12-26T18:41:15.145Z,85.64
2022-12-26T18:43:42.981Z,85.65
2022-12-26T18:46:11.182Z,85.01
2022-12-26T18:48:39.132Z,86.30
2022-12-26T18:51:07.541Z,85.93
2022-12-26T18:53:35.562Z,85.89
2022-12-26T18:56:03.366Z,85.44
2022-12-26T18:58:31.406Z,85.13
2022-12-26T19:00:59.644Z,85.37
2022-12-26T19:03:27.929Z,85.63
2022-12-26T19:05:55.953Z,85.37
2022-12-26T19:08:23.993Z,85.18
2022-12-26T19:10:51.931Z,85.48
2022-12-26T19:13:20.334Z,85.37
2022-12-26T19:15:48.657Z,85.35
2022-12-26T19:18:16.511Z,85.18
2022-12-26T19:20:44.528Z,85.53
2022-12-26T19:23:12.690Z,85.86
2022-12-26T19:25:40.544Z,85.53
2022-12-26T19:28:08.339Z,85.71
2022-12-26T19:30:38.985Z,85.96
2022-12-26T19:33:07.178Z,85.54
2022-12-26T19:35:36.719Z,85.87
2022-12-26T19:38:04.718Z,85.30
2022-12-26T19:40:32.925Z,85.73
2022-12-26T19:43:00.726Z,85.83
2022-12-26T19:45:28.606Z,85.97
2022-12-26T19:47:58.661Z,85.65
2022-12-26T19:50:26.649Z,85.88
2022-12-26T19:52:54.896Z,85.77
2022-12-26T19:55:22.734Z,85.50
2022-12-26T19:57:51.125Z,85.86
2022-12-26T20:00:19.233Z,85.58
2022-12-26T20:02:47.324Z,85.22
2022-12-26T20:05:15.771Z,85.75
2022-12-26T20:07:43.587Z,85.63
2022-12-26T20:10:11.424Z,85.53
2022-12-26T20:12:39.636Z,85.69
2022-12-26T20:15:07.660Z,85.81
2022-12-26T20:17:36.241Z,86.01
2022-12-26T20:20:04.250Z,85.69
2022-12-26T20:22:32.193Z,85.70
2022-12-26T20:25:00.415Z,85.46
2022-12-26T20:27:28.324Z,85.41
2022-12-26T20:29:56.752Z,85.29
2022-12-26T20:32:24.586Z,85.28
2022-12-26T20:34:52.749Z,85.33
2022-12-26T20:37:20.932Z,85.54
2022-12-26T20:39:48.797Z,85.54
2022-12-26T20:42:17.860Z,85.53
2022-12-26T20:44:45.707Z,85.40
2022-12-26T20:47:13.585Z,85.54
2022-12-26T20:49:42.242Z,85.55
2022-12-26T20:52:10.099Z,85.79
2022-12-26T20:54:38.187Z,85.24
2022-12-26T20:57:06.038Z,85.63
2022-12-26T20:59:33.876Z,85.51
2022-12-26T21:02:02.107Z,85.34
2022-12-26T21:04:30.611Z,85.42
2022-12-26T21:06:58.763Z,85.57
2022-12-26T21:09:26.597Z,85.79
2022-12-26T21:11:54.490Z,85.04
2022-12-26T21:14:22.833Z,85.65
2022-12-26T21:16:50.765Z,85.03
2022-12-26T21:19:18.925Z,85.25
2022-12-26T21:21:46.756Z,84.75
2022-12-26T21:24:14.777Z,85.08
2022-12-26T21:26:44.966Z,84.66
2022-12-26T21:29:12.692Z,85.11
2022-12-26T21:31:40.859Z,85.30
2022-12-26T21:34:09.044Z,84.76
2022-12-26T21:36:36.966Z,84.99
2022-12-26T21:39:04.863Z,84.23
2022-12-26T21:41:32.860Z,84.40
2022-12-26T21:44:01.202Z,84.93
2022-12-26T21:46:28.983Z,84.78
2022-12-26T21:48:56.954Z,84.30
2022-12-26T21:51:26.182Z,84.34
2022-12-26T21:54:14.095Z,84.40
2022-12-26T21:56:40.894Z,84.30
2022-12-26T21:59:26.142Z,84.21
2022-12-26T22:01:54.190Z,84.72
2022-12-26T22:04:21.412Z,84.49
2022-12-26T22:06:49.512Z,84.37
2022-12-26T22:09:17.804Z,83.69
2022-12-26T22:12:03.348Z,83.63
2022-12-26T22:14:31.945Z,83.63
2022-12-26T22:16:59.881Z,83.93
2022-12-26T22:19:27.793Z,83.79
2022-12-26T22:21:55.643Z,83.54
2022-12-26T22:24:23.517Z,82.86
2022-12-26T22:26:51.774Z,83.21
2022-12-26T22:29:20.022Z,82.64
2022-12-26T22:31:47.801Z,82.70
2022-12-26T22:34:16.584Z,82.91
2022-12-26T22:36:44.390Z,82.42
2022-12-26T22:39:12.785Z,82.18
2022-12-26T22:41:40.577Z,82.30
2022-12-26T22:44:08.452Z,82.40
2022-12-26T22:46:37.066Z,82.25
2022-12-26T22:49:04.974Z,82.29
2022-12-26T22:51:34.573Z,81.92
2022-12-26T22:54:02.271Z,82.09
2022-12-26T22:56:30.206Z,81.69
2022-12-26T22:59:00.771Z,81.66
2022-12-26T23:01:28.772Z,81.63
2022-12-26T23:03:57.250Z,81.94
2022-12-26T23:06:24.896Z,81.45
2022-12-26T23:08:53.122Z,81.39
2022-12-26T23:11:20.893Z,81.34
2022-12-26T23:13:49.293Z,81.67
2022-12-26T23:16:17.923Z,81.40
2022-12-26T23:19:02.962Z,81.06
2022-12-26T23:21:45.913Z,81.19
2022-12-26T23:24:13.802Z,81.43
2022-12-26T23:26:42.039Z,81.09
2022-12-26T23:29:27.258Z,80.86
2022-12-26T23:31:55.067Z,80.94
2022-12-26T23:34:23.183Z,80.98
2022-12-26T23:36:51.485Z,80.67
2022-12-26T23:39:19.129Z,80.69
2022-12-26T23:41:46.793Z,80.71
2022-12-26T23:44:14.503Z,80.82
2022-12-26T23:46:42.224Z,80.40
2022-12-26T23:49:10.509Z,80.92
2022-12-26T23:51:38.207Z,81.01
2022-12-26T23:54:05.884Z,81.13
2022-12-26T23:56:33.963Z,81.09
2022-12-26T23:59:01.669Z,81.15
